Time;durP1;ratioP1;P1;durP2;ratioP2;P2;SDS_P1;SDS_P2;PMS_P1;PMS_P2;Temp;Humidity;BMP_temperature;BMP_pressure;BME280_temperature;BME280_humidity;BME280_pressure;Samples;Min_cycle;Max_cycle;Signal;HPM_P1;HPM_P2
2023/06/09 00:01:04;;;;;;;8.00;7.25;;;;;;;18.41;100.00;100651.13;6241456;28;20369;-89
2023/06/09 00:04:06;;;;;;;8.07;7.25;;;;;;;18.44;100.00;100644.72;6244247;28;20093;-90
2023/06/09 00:07:08;;;;;;;7.80;7.00;;;;;;;18.46;100.00;100650.63;6248063;28;20556;-89
2023/06/09 00:10:10;;;;;;;7.97;7.00;;;;;;;18.47;100.00;100645.19;6248936;28;20048;-90
2023/06/09 00:13:15;;;;;;;9.90;7.10;;;;;;;18.47;100.00;100653.06;6212690;28;20131;-90
2023/06/09 00:16:17;;;;;;;9.15;7.40;;;;;;;18.46;100.00;100648.00;6260787;28;20051;-90
2023/06/09 00:19:19;;;;;;;7.85;7.13;;;;;;;18.42;100.00;100651.94;6250161;28;20491;-90
2023/06/09 00:22:21;;;;;;;8.93;7.45;;;;;;;18.37;100.00;100639.34;6239787;28;20050;-90
2023/06/09 00:25:23;;;;;;;10.45;7.40;;;;;;;18.29;100.00;100642.81;6246030;28;20491;-89
2023/06/09 00:28:25;;;;;;;10.23;7.45;;;;;;;18.22;100.00;100647.09;6228889;28;20068;-90
2023/06/09 00:31:26;;;;;;;8.52;7.68;;;;;;;18.15;100.00;100650.56;6206979;28;20558;-89
2023/06/09 00:34:28;;;;;;;9.38;8.15;;;;;;;18.07;100.00;100644.34;6248446;28;20036;-89
2023/06/09 00:37:31;;;;;;;7.70;6.95;;;;;;;17.98;100.00;100644.53;6254038;28;20067;-90
2023/06/09 00:40:36;;;;;;;8.57;7.40;;;;;;;17.93;100.00;100644.19;6241287;28;20490;-92
2023/06/09 00:43:38;;;;;;;10.75;7.32;;;;;;;17.92;100.00;100645.19;6236245;28;20041;-90
2023/06/09 00:46:41;;;;;;;7.60;6.90;;;;;;;17.85;100.00;100645.84;6235962;28;20058;-89
2023/06/09 00:49:48;;;;;;;8.05;7.13;;;;;;;17.83;100.00;100642.56;6219300;28;20045;-90
2023/06/09 00:52:52;;;;;;;8.40;7.20;;;;;;;17.81;100.00;100644.56;6245183;28;20123;-89
2023/06/09 00:55:54;;;;;;;7.53;6.68;;;;;;;17.79;100.00;100637.81;6250678;28;20072;-89
2023/06/09 00:58:56;;;;;;;7.93;7.10;;;;;;;17.74;100.00;100633.09;6230443;28;20121;-90
2023/06/09 01:01:58;;;;;;;8.18;7.20;;;;;;;17.73;100.00;100635.84;6234433;28;20061;-89
2023/06/09 01:05:00;;;;;;;7.80;6.47;;;;;;;17.71;100.00;100636.00;6259490;28;20398;-90
2023/06/09 01:08:55;;;;;;;8.90;6.82;;;;;;;17.72;100.00;100637.66;6250590;28;20041;-89
2023/06/09 01:12:15;;;;;;;7.50;6.80;;;;;;;17.72;100.00;100640.28;6175996;28;20209;-89
2023/06/09 01:15:22;;;;;;;7.72;6.63;;;;;;;17.71;100.00;100636.00;6182610;28;20318;-89
2023/06/09 01:18:27;;;;;;;8.20;6.90;;;;;;;17.71;100.00;100633.38;6165123;28;20042;-89
2023/06/09 01:21:40;;;;;;;7.65;6.95;;;;;;;17.74;100.00;100637.47;6183123;28;20057;-89
2023/06/09 01:25:10;;;;;;;7.90;6.90;;;;;;;17.74;100.00;100635.69;6183168;28;20705;-89
2023/06/09 01:28:21;;;;;;;8.52;6.78;;;;;;;17.78;100.00;100636.16;6118329;28;20148;-89
2023/06/09 01:31:24;;;;;;;7.65;6.95;;;;;;;17.75;100.00;100634.69;6133535;28;20543;-90
2023/06/09 01:34:27;;;;;;;8.15;7.00;;;;;;;17.75;100.00;100634.69;6135396;28;20130;-90
2023/06/09 01:37:30;;;;;;;8.23;7.13;;;;;;;17.76;100.00;100632.91;6119018;29;20378;-89
2023/06/09 01:40:32;;;;;;;10.40;7.30;;;;;;;17.77;100.00;100631.94;6133938;28;20221;-90
2023/06/09 01:43:35;;;;;;;8.52;6.93;;;;;;;17.74;100.00;100627.84;6117963;29;20547;-89
2023/06/09 01:46:37;;;;;;;8.25;7.32;;;;;;;17.74;100.00;100627.00;6164886;28;20055;-89
2023/06/09 01:49:54;;;;;;;7.85;7.05;;;;;;;17.71;100.00;100620.28;6175185;28;20057;-89
2023/06/09 01:53:04;;;;;;;7.47;6.78;;;;;;;17.71;100.00;100622.91;6166805;28;20516;-89
2023/06/09 01:56:25;;;;;;;8.50;6.57;;;;;;;17.67;100.00;100621.63;6165630;28;20500;-89
2023/06/09 01:59:37;;;;;;;7.45;6.75;;;;;;;17.64;100.00;100622.78;6150511;28;20046;-89
2023/06/09 02:02:41;;;;;;;8.50;7.03;;;;;;;17.59;100.00;100624.25;6165557;28;20092;-89
2023/06/09 02:05:46;;;;;;;12.02;7.43;;;;;;;17.58;100.00;100618.19;6211262;28;20046;-89
2023/06/09 02:08:48;;;;;;;8.48;7.00;;;;;;;17.56;100.00;100622.75;6224293;28;20384;-89
2023/06/09 02:11:51;;;;;;;7.72;7.03;;;;;;;17.53;100.00;100617.88;6229177;28;20355;-89
2023/06/09 02:14:53;;;;;;;7.45;6.78;;;;;;;17.50;100.00;100614.78;6240554;28;20578;-89
2023/06/09 02:17:55;;;;;;;7.75;6.95;;;;;;;17.48;100.00;100614.91;6236897;28;20518;-89
2023/06/09 02:20:58;;;;;;;9.13;7.45;;;;;;;17.45;100.00;100620.50;6233558;28;20391;-89
2023/06/09 02:24:00;;;;;;;8.20;7.32;;;;;;;17.46;100.00;100631.78;6234416;28;20117;-89
2023/06/09 02:27:03;;;;;;;9.52;7.13;;;;;;;17.46;100.00;100624.72;6238355;28;20048;-89
2023/06/09 02:30:07;;;;;;;8.05;7.25;;;;;;;17.48;100.00;100627.19;6247426;28;20064;-89
2023/06/09 02:33:10;;;;;;;7.82;7.13;;;;;;;17.44;100.00;100621.47;6232569;28;20037;-89
2023/06/09 02:36:15;;;;;;;8.80;7.05;;;;;;;17.45;100.00;100625.72;6236130;28;20045;-89
2023/06/09 02:39:17;;;;;;;8.10;7.30;;;;;;;17.49;100.00;100626.19;6228808;28;20103;-89
2023/06/09 02:42:19;;;;;;;8.32;7.10;;;;;;;17.44;100.00;100626.72;6236563;28;20114;-89
2023/06/09 02:45:21;;;;;;;10.82;7.50;;;;;;;17.43;100.00;100627.69;6252705;28;20577;-89
2023/06/09 02:48:23;;;;;;;9.05;7.35;;;;;;;17.37;100.00;100626.53;6257101;28;20045;-89
2023/06/09 02:51:25;;;;;;;8.20;7.00;;;;;;;17.32;100.00;100638.47;6246410;28;20452;-89
2023/06/09 02:54:28;;;;;;;8.70;7.13;;;;;;;17.27;100.00;100630.31;6256734;28;20191;-89
2023/06/09 02:57:30;;;;;;;10.02;8.00;;;;;;;17.23;100.00;100637.66;6253334;28;20136;-89
2023/06/09 03:00:32;;;;;;;10.75;8.05;;;;;;;17.20;100.00;100636.16;6253395;28;20049;-89
2023/06/09 03:03:40;;;;;;;8.57;7.65;;;;;;;17.19;100.00;100638.94;6252202;28;20095;-89
2023/06/09 03:06:43;;;;;;;8.90;7.95;;;;;;;17.17;100.00;100638.31;6224716;28;20139;-89
2023/06/09 03:09:49;;;;;;;9.10;8.20;;;;;;;17.16;100.00;100637.47;6246104;28;20111;-89
2023/06/09 03:12:51;;;;;;;8.80;7.90;;;;;;;17.17;100.00;100640.91;6257518;28;20107;-89
2023/06/09 03:15:54;;;;;;;9.10;8.13;;;;;;;17.16;100.00;100647.13;6215011;28;20046;-89
2023/06/09 03:18:57;;;;;;;8.85;7.97;;;;;;;17.17;100.00;100648.75;6244939;28;20560;-89
2023/06/09 03:22:03;;;;;;;11.45;8.07;;;;;;;17.20;100.00;100657.09;6221672;28;20049;-89
2023/06/09 03:25:09;;;;;;;10.68;8.55;;;;;;;17.22;100.00;100660.38;6227871;28;20054;-89
2023/06/09 03:28:12;;;;;;;9.77;8.77;;;;;;;17.24;100.00;100660.19;6230458;28;20525;-89
2023/06/09 03:31:17;;;;;;;11.15;9.38;;;;;;;17.27;100.00;100667.75;6237333;28;20054;-89
2023/06/09 03:34:22;;;;;;;9.63;8.63;;;;;;;17.30;100.00;100664.00;6236674;28;20499;-89
2023/06/09 03:37:26;;;;;;;10.10;8.85;;;;;;;17.31;100.00;100669.03;6251914;28;20620;-89
2023/06/09 03:40:29;;;;;;;10.55;8.57;;;;;;;17.32;100.00;100667.28;6242500;28;20442;-89
2023/06/09 03:43:31;;;;;;;9.18;8.32;;;;;;;17.34;100.00;100671.34;6243754;28;20047;-89
2023/06/09 03:46:34;;;;;;;10.38;8.02;;;;;;;17.36;100.00;100677.22;6243205;28;20053;-89
2023/06/09 03:49:37;;;;;;;9.20;8.27;;;;;;;17.35;100.00;100672.16;6230887;28;20044;-89
2023/06/09 03:52:39;;;;;;;10.27;8.57;;;;;;;17.35;100.00;100665.13;6237404;28;21366;-89
2023/06/09 03:55:43;;;;;;;11.80;8.77;;;;;;;17.37;100.00;100671.03;6244598;28;20041;-89
2023/06/09 03:58:46;;;;;;;10.32;8.68;;;;;;;17.40;100.00;100669.88;6245486;28;20049;-89
2023/06/09 04:01:48;;;;;;;9.70;8.63;;;;;;;17.44;100.00;100669.41;6226958;28;20054;-89
2023/06/09 04:04:51;;;;;;;9.93;8.93;;;;;;;17.46;100.00;100666.59;6243579;28;20459;-89
2023/06/09 04:07:53;;;;;;;9.60;8.57;;;;;;;17.48;100.00;100674.31;6258177;28;20091;-89
2023/06/09 04:10:56;;;;;;;9.55;8.60;;;;;;;17.48;100.00;100667.25;6207054;28;20285;-89
2023/06/09 04:13:57;;;;;;;8.77;7.78;;;;;;;17.50;100.00;100669.72;6246664;28;20625;-89
2023/06/09 04:16:59;;;;;;;9.77;8.75;;;;;;;17.47;100.00;100664.81;6249624;28;20089;-89
2023/06/09 04:20:12;;;;;;;10.60;8.60;;;;;;;17.47;100.00;100670.88;6251753;28;20053;-89
2023/06/09 04:23:18;;;;;;;9.50;8.60;;;;;;;17.49;100.00;100673.31;6246548;28;20053;-89
2023/06/09 04:26:21;;;;;;;10.13;8.77;;;;;;;17.51;100.00;100671.34;6258344;28;20406;-89
2023/06/09 04:29:23;;;;;;;9.07;8.18;;;;;;;17.52;100.00;100671.19;6251564;28;20487;-89
2023/06/09 04:32:32;;;;;;;10.13;8.50;;;;;;;17.58;100.00;100669.72;6258006;28;20044;-89
2023/06/09 04:35:35;;;;;;;8.80;8.00;;;;;;;17.60;100.00;100667.78;6244162;28;20041;-89
2023/06/09 04:38:39;;;;;;;9.73;8.07;;;;;;;17.62;100.00;100656.16;6228811;28;20140;-89
2023/06/09 04:41:44;;;;;;;9.82;8.90;;;;;;;17.68;100.00;100665.13;6235614;28;20132;-89
2023/06/09 04:44:47;;;;;;;9.13;8.23;;;;;;;17.73;100.00;100667.28;6258377;28;20367;-89
2023/06/09 04:47:50;;;;;;;10.43;9.40;;;;;;;17.79;100.00;100662.19;6249748;28;20052;-89
2023/06/09 04:50:51;;;;;;;10.50;8.73;;;;;;;17.83;100.00;100660.09;6247182;28;20037;-89
2023/06/09 04:53:54;;;;;;;10.30;9.30;;;;;;;17.90;100.00;100668.13;6241348;28;20049;-89
2023/06/09 04:57:02;;;;;;;11.02;8.93;;;;;;;17.96;100.00;100663.03;6238733;28;20076;-89
2023/06/09 05:00:12;;;;;;;10.50;9.50;;;;;;;18.03;100.00;100666.59;6236438;28;20570;-89
2023/06/09 05:03:17;;;;;;;11.13;9.23;;;;;;;18.12;100.00;100671.84;6254108;28;20041;-89
2023/06/09 05:06:21;;;;;;;10.18;8.68;;;;;;;18.23;100.00;100672.28;6249767;28;20044;-89
2023/06/09 05:09:22;;;;;;;14.02;10.40;;;;;;;18.35;100.00;100670.13;6230949;28;20578;-89
2023/06/09 05:12:25;;;;;;;11.10;9.90;;;;;;;18.44;100.00;100671.75;6255891;28;20044;-89
2023/06/09 05:15:27;;;;;;;11.68;9.18;;;;;;;18.53;100.00;100675.16;6251866;28;20482;-89
2023/06/09 05:18:30;;;;;;;10.75;9.52;;;;;;;18.60;100.00;100676.13;6241254;28;20520;-89
2023/06/09 05:21:33;;;;;;;12.85;9.50;;;;;;;18.67;100.00;100684.13;6245142;28;20123;-89
2023/06/09 05:24:35;;;;;;;10.75;9.18;;;;;;;18.74;100.00;100677.22;6246924;28;20087;-89
2023/06/09 05:27:37;;;;;;;11.05;8.70;;;;;;;18.80;100.00;100687.03;6247335;28;20048;-89
2023/06/09 05:30:39;;;;;;;11.18;8.75;;;;;;;18.81;100.00;100682.63;6262858;28;20049;-89
2023/06/09 05:33:42;;;;;;;11.65;9.57;;;;;;;18.86;100.00;100685.56;6259967;28;20048;-89
2023/06/09 05:36:45;;;;;;;11.13;9.77;;;;;;;18.90;100.00;100697.31;6259755;28;20056;-89
2023/06/09 05:39:49;;;;;;;10.60;9.57;;;;;;;18.96;100.00;100696.66;6252440;28;20072;-89
2023/06/09 05:42:50;;;;;;;10.95;9.68;;;;;;;19.02;100.00;100703.81;6242088;28;20041;-89
2023/06/09 05:45:52;;;;;;;12.40;9.98;;;;;;;19.08;100.00;100704.94;6238757;28;20054;-89
2023/06/09 05:48:54;;;;;;;13.00;9.73;;;;;;;19.14;100.00;100694.56;6246377;28;20045;-89
2023/06/09 05:51:56;;;;;;;11.43;9.70;;;;;;;19.21;100.00;100701.78;6243126;28;20044;-88
2023/06/09 05:54:58;;;;;;;15.40;10.40;;;;;;;19.28;100.00;100707.97;6250910;28;20065;-88
2023/06/09 05:58:00;;;;;;;11.05;9.90;;;;;;;19.36;100.00;100703.47;6244711;28;20052;-88
2023/06/09 06:01:07;;;;;;;11.80;10.15;;;;;;;19.45;100.00;100711.28;6236994;28;20042;-88
2023/06/09 06:04:08;;;;;;;11.30;10.10;;;;;;;19.49;100.00;100712.56;6251110;28;20053;-88
2023/06/09 06:07:11;;;;;;;13.30;10.18;;;;;;;19.54;100.00;100715.50;6239683;28;20052;-89
2023/06/09 06:10:14;;;;;;;14.05;9.52;;;;;;;19.58;100.00;100703.66;6223927;28;20057;-88
2023/06/09 06:13:15;;;;;;;11.25;9.35;;;;;;;19.67;100.00;100715.75;6238911;28;20534;-89
2023/06/09 06:16:17;;;;;;;12.10;9.43;;;;;;;19.71;100.00;100711.78;6231961;28;20045;-88
2023/06/09 06:19:22;;;;;;;16.48;9.80;;;;;;;19.78;100.00;100712.72;6249944;28;20503;-89
2023/06/09 06:22:24;;;;;;;14.52;9.95;;;;;;;19.88;100.00;100712.47;6238677;28;20081;-89
2023/06/09 06:25:28;;;;;;;18.02;9.98;;;;;;;19.95;100.00;100712.56;6244606;28;20045;-89
2023/06/09 06:28:30;;;;;;;11.82;9.32;;;;;;;20.04;100.00;100716.75;6247261;28;20038;-89
2023/06/09 06:31:32;;;;;;;12.43;9.48;;;;;;;20.16;100.00;100714.50;6245221;28;20041;-89
2023/06/09 06:34:34;;;;;;;13.25;10.02;;;;;;;20.31;100.00;100723.22;6245839;28;20451;-89
2023/06/09 06:37:36;;;;;;;17.58;10.25;;;;;;;20.44;100.00;100722.59;6245702;28;20033;-89
2023/06/09 06:40:38;;;;;;;11.32;9.40;;;;;;;20.61;100.00;100720.63;6244595;28;20128;-89
2023/06/09 06:43:43;;;;;;;14.40;9.75;;;;;;;20.74;100.00;100720.78;6256498;28;20509;-89
2023/06/09 06:46:45;;;;;;;16.00;9.95;;;;;;;20.86;100.00;100721.16;6257061;28;20048;-89
2023/06/09 06:49:47;;;;;;;12.05;9.48;;;;;;;20.99;100.00;100723.97;6245791;28;20040;-89
2023/06/09 06:52:49;;;;;;;14.48;9.43;;;;;;;21.11;100.00;100726.91;6240371;28;20045;-89
2023/06/09 06:55:51;;;;;;;13.43;9.90;;;;;;;21.26;100.00;100727.69;6252366;28;20048;-89
2023/06/09 06:58:53;;;;;;;12.52;9.48;;;;;;;21.43;100.00;100730.13;6254002;28;20561;-89
2023/06/09 07:01:55;;;;;;;15.07;9.88;;;;;;;21.62;100.00;100726.88;6242447;28;20045;-89
2023/06/09 07:04:59;;;;;;;11.80;9.23;;;;;;;21.82;100.00;100734.13;6237410;28;20549;-89
2023/06/09 07:08:01;;;;;;;12.48;9.07;;;;;;;22.00;100.00;100731.03;6259437;28;20406;-88
2023/06/09 07:11:03;;;;;;;13.25;8.73;;;;;;;22.16;100.00;100733.38;6252487;28;20049;-88
2023/06/09 07:14:05;;;;;;;10.38;8.27;;;;;;;22.35;100.00;100731.91;6250770;28;20037;-89
2023/06/09 07:17:07;;;;;;;12.85;9.25;;;;;;;22.50;100.00;100729.97;6240094;28;20502;-89
2023/06/09 07:20:12;;;;;;;9.63;8.38;;;;;;;22.63;100.00;100731.84;6201841;28;20551;-89
2023/06/09 07:23:14;;;;;;;11.63;9.35;;;;;;;22.74;100.00;100736.59;6241464;28;20495;-89
2023/06/09 07:26:16;;;;;;;9.35;8.30;;;;;;;22.86;100.00;100736.84;6249139;28;20491;-89
2023/06/09 07:29:18;;;;;;;9.75;8.57;;;;;;;22.96;100.00;100732.00;6249632;28;20051;-88
2023/06/09 07:32:20;;;;;;;9.10;8.07;;;;;;;23.08;100.00;100729.66;6238919;28;20065;-89
2023/06/09 07:35:23;;;;;;;9.95;7.95;;;;;;;23.20;100.00;100730.69;6221709;28;20045;-89
2023/06/09 07:38:26;;;;;;;13.40;8.77;;;;;;;23.37;100.00;100738.25;6248627;28;20045;-89
2023/06/09 07:41:29;;;;;;;10.57;8.38;;;;;;;23.58;100.00;100729.34;6250286;28;20095;-89
2023/06/09 07:44:32;;;;;;;12.48;8.77;;;;;;;23.66;100.00;100737.06;6239587;28;20120;-88
2023/06/09 07:47:33;;;;;;;11.27;8.52;;;;;;;23.74;100.00;100731.59;6237893;28;20084;-88
2023/06/09 07:50:36;;;;;;;10.10;8.02;;;;;;;23.86;100.00;100737.09;6242733;28;20045;-88
2023/06/09 07:53:57;;;;;;;12.05;8.52;;;;;;;24.08;100.00;100735.06;6250896;28;20120;-88
2023/06/09 07:56:59;;;;;;;10.95;8.25;;;;;;;24.36;100.00;100736.66;6250063;28;20042;-88
2023/06/09 08:00:03;;;;;;;10.85;8.50;;;;;;;24.56;100.00;100739.28;6235942;28;20407;-88
2023/06/09 08:03:12;;;;;;;8.48;7.45;;;;;;;24.75;100.00;100732.31;6244270;28;20050;-88
2023/06/09 08:06:14;;;;;;;11.02;8.43;;;;;;;24.90;100.00;100738.94;6239036;28;20048;-89
2023/06/09 08:09:20;;;;;;;9.15;8.05;;;;;;;24.95;100.00;100737.50;6231431;28;20067;-89
2023/06/09 08:12:22;;;;;;;10.95;8.00;;;;;;;25.03;100.00;100745.22;6242707;28;20038;-88
2023/06/09 08:15:23;;;;;;;11.77;9.05;;;;;;;25.15;100.00;100744.31;6229718;28;20044;-88
2023/06/09 08:18:25;;;;;;;10.13;8.35;;;;;;;25.23;100.00;100739.84;6249256;28;20048;-88
2023/06/09 08:21:27;;;;;;;11.93;7.97;;;;;;;25.28;100.00;100745.31;6234764;28;20296;-88
2023/06/09 08:24:30;;;;;;;10.60;7.57;;;;;;;25.29;100.00;100739.81;6248546;28;20503;-88
2023/06/09 08:27:32;;;;;;;8.45;7.50;;;;;;;25.28;100.00;100737.34;6238182;28;20494;-88
2023/06/09 08:30:34;;;;;;;10.88;8.45;;;;;;;25.33;100.00;100735.69;6237989;28;20049;-88
2023/06/09 08:33:36;;;;;;;10.32;7.80;;;;;;;25.35;100.00;100733.63;6247702;28;20505;-88
2023/06/09 08:36:38;;;;;;;13.82;8.32;;;;;;;25.54;100.00;100733.72;6243308;28;20169;-88
2023/06/09 08:39:39;;;;;;;8.75;7.85;;;;;;;25.58;100.00;100732.25;6247136;28;20053;-88
2023/06/09 08:42:46;;;;;;;8.95;8.05;;;;;;;25.54;100.00;100737.19;6240528;28;20112;-88
2023/06/09 08:45:51;;;;;;;12.35;8.15;;;;;;;25.58;100.00;100737.56;6213417;28;20056;-88
2023/06/09 08:49:00;;;;;;;10.15;7.97;;;;;;;25.54;100.00;100747.78;6237187;28;20037;-88
2023/06/09 08:52:04;;;;;;;9.65;7.57;;;;;;;25.51;100.00;100745.56;6231763;28;20079;-88
2023/06/09 08:55:08;;;;;;;9.07;7.80;;;;;;;25.55;100.00;100746.75;6228947;28;20060;-89
2023/06/09 08:58:12;;;;;;;10.00;8.35;;;;;;;25.58;100.00;100745.50;6238584;28;20069;-89
2023/06/09 09:01:19;;;;;;;9.07;8.10;;;;;;;25.73;100.00;100748.66;6241025;28;20495;-88
2023/06/09 09:04:21;;;;;;;11.30;8.60;;;;;;;25.89;100.00;100747.34;6238412;28;20052;-88
2023/06/09 09:07:23;;;;;;;9.57;7.95;;;;;;;26.05;100.00;100747.84;6234931;28;20052;-88
2023/06/09 09:10:25;;;;;;;11.43;8.00;;;;;;;26.16;100.00;100749.75;6250203;28;20042;-88
2023/06/09 09:13:29;;;;;;;9.75;8.35;;;;;;;26.31;100.00;100752.06;6236204;28;20041;-89
2023/06/09 09:16:34;;;;;;;13.43;8.48;;;;;;;26.47;100.00;100750.69;6197141;28;20053;-89
2023/06/09 09:19:39;;;;;;;10.38;8.45;;;;;;;26.66;100.00;100741.72;6238439;28;20068;-89
2023/06/09 09:22:49;;;;;;;15.68;8.35;;;;;;;26.64;100.00;100739.28;6260029;28;20087;-88
2023/06/09 09:25:51;;;;;;;9.70;7.22;;;;;;;26.66;100.00;100736.41;6244021;28;20049;-88
2023/06/09 09:28:57;;;;;;;11.02;8.07;;;;;;;26.72;100.00;100740.00;6260134;28;20048;-89
2023/06/09 09:32:01;;;;;;;10.60;7.22;;;;;;;26.68;100.00;100736.16;6228530;28;20060;-88
2023/06/09 09:35:03;;;;;;;10.93;7.70;;;;;;;26.58;100.00;100734.03;6258195;28;20338;-88
2023/06/09 09:38:12;;;;;;;8.30;7.00;;;;;;;26.34;100.00;100731.22;6247579;28;20037;-88
2023/06/09 09:41:14;;;;;;;8.63;7.40;;;;;;;26.24;100.00;100738.88;6243056;28;20048;-88
2023/06/09 09:44:17;;;;;;;16.27;7.38;;;;;;;26.15;100.00;100732.22;6254860;28;20418;-90
2023/06/09 09:47:19;;;;;;;13.07;7.40;;;;;;;26.23;100.00;100737.22;6248838;28;20052;-88
2023/06/09 09:50:23;;;;;;;8.32;7.30;;;;;;;26.22;100.00;100722.34;6226821;28;20486;-88
2023/06/09 09:53:27;;;;;;;8.68;7.00;;;;;;;26.21;100.00;100731.38;6245380;28;20578;-89
2023/06/09 09:56:29;;;;;;;9.32;7.22;;;;;;;26.20;100.00;100727.88;6235436;28;20072;-88
2023/06/09 09:59:31;;;;;;;8.48;7.40;;;;;;;26.42;100.00;100719.50;6238787;28;20042;-89
2023/06/09 10:02:35;;;;;;;9.00;6.43;;;;;;;26.77;100.00;100721.56;6249213;28;20422;-89
2023/06/09 10:05:43;;;;;;;11.13;6.50;;;;;;;27.09;100.00;100724.00;6251777;28;20494;-89
2023/06/09 10:08:46;;;;;;;7.82;6.05;;;;;;;27.51;100.00;100732.81;6245720;28;20153;-90
2023/06/09 10:11:48;;;;;;;9.32;6.10;;;;;;;27.81;100.00;100727.44;6251525;28;20548;-88
2023/06/09 10:14:53;;;;;;;7.20;5.47;;;;;;;28.29;100.00;100728.25;6252121;28;20045;-88
2023/06/09 10:17:56;;;;;;;9.63;6.18;;;;;;;28.87;95.90;100722.00;6243621;28;20057;-88
2023/06/09 10:20:57;;;;;;;15.38;6.40;;;;;;;29.37;95.07;100734.66;6246258;28;20041;-89
2023/06/09 10:24:00;;;;;;;7.18;6.20;;;;;;;29.71;91.30;100728.53;6253174;28;20470;-89
2023/06/09 10:27:04;;;;;;;10.77;6.07;;;;;;;30.04;86.53;100731.19;6254491;28;20037;-90
2023/06/09 10:30:07;;;;;;;6.70;6.03;;;;;;;30.23;83.81;100729.00;6224174;28;20458;-90
2023/06/09 10:33:14;;;;;;;7.47;5.95;;;;;;;30.37;74.46;100732.16;6238504;28;20045;-90
2023/06/09 10:36:16;;;;;;;8.13;6.25;;;;;;;30.38;76.98;100733.78;6244975;28;20042;-90
2023/06/09 10:39:19;;;;;;;9.50;5.93;;;;;;;30.37;73.06;100732.16;6235500;28;20179;-90
2023/06/09 10:42:36;;;;;;;7.80;5.90;;;;;;;30.21;83.51;100727.63;6242589;28;20045;-88
2023/06/09 10:45:55;;;;;;;57.88;13.05;;;;;;;29.94;100.00;100720.34;6228847;28;20458;-87
2023/06/09 10:48:57;;;;;;;8.77;5.40;;;;;;;29.43;100.00;100716.88;6255705;28;20037;-88
2023/06/09 10:51:58;;;;;;;8.73;5.38;;;;;;;29.29;100.00;100721.72;6243130;28;20037;-88
2023/06/09 10:55:15;;;;;;;7.70;5.88;;;;;;;29.32;95.48;100721.22;6241541;28;20034;-87
2023/06/09 10:58:42;;;;;;;8.75;5.47;;;;;;;29.26;95.12;100719.50;6232432;28;20609;-87
2023/06/09 11:02:05;;;;;;;8.35;5.80;;;;;;;29.38;89.11;100714.13;6244359;28;20057;-88
2023/06/09 11:05:08;;;;;;;8.88;6.15;;;;;;;29.56;94.25;100713.88;6254448;28;20502;-88
2023/06/09 11:08:13;;;;;;;7.10;5.32;;;;;;;29.72;82.42;100722.16;6248276;28;20041;-88
2023/06/09 11:11:16;;;;;;;9.30;5.93;;;;;;;29.53;77.56;100718.88;6255741;28;20045;-87
2023/06/09 11:14:51;;;;;;;9.13;5.43;;;;;;;29.39;80.16;100711.22;6253235;28;20498;-87
2023/06/09 11:17:53;;;;;;;6.78;5.43;;;;;;;29.25;76.68;100712.56;6232574;28;20046;-87
2023/06/09 11:21:09;;;;;;;8.52;5.55;;;;;;;29.23;78.59;100714.66;6234481;28;20120;-86
2023/06/09 11:24:11;;;;;;;23.13;6.15;;;;;;;29.18;82.85;100706.56;6228924;28;20053;-89
2023/06/09 11:27:18;;;;;;;6.18;5.07;;;;;;;29.56;82.24;100707.72;6257245;28;20055;-89
2023/06/09 11:30:30;;;;;;;6.28;5.22;;;;;;;29.78;79.10;100707.81;6248112;28;20499;-88
2023/06/09 11:33:53;;;;;;;6.60;5.90;;;;;;;29.91;76.45;100704.00;6240864;28;20045;-88
2023/06/09 11:36:55;;;;;;;6.47;5.63;;;;;;;29.88;74.34;100696.50;6241569;28;20049;-88
2023/06/09 11:39:57;;;;;;;8.05;5.43;;;;;;;30.07;79.69;100703.16;6233851;28;20131;-89
2023/06/09 11:43:03;;;;;;;8.00;5.05;;;;;;;30.53;75.89;100692.28;6241053;28;20037;-89
2023/06/09 11:46:06;;;;;;;6.00;5.40;;;;;;;30.60;68.60;100707.06;6243858;28;20045;-88
2023/06/09 11:49:09;;;;;;;8.73;5.65;;;;;;;30.54;75.34;100702.72;6244524;28;20058;-88
2023/06/09 11:52:11;;;;;;;6.45;5.45;;;;;;;30.68;72.97;100697.78;6240258;28;20052;-89
2023/06/09 11:55:17;;;;;;;5.60;5.07;;;;;;;30.83;70.57;100697.16;6234109;28;20054;-88
2023/06/09 11:58:18;;;;;;;5.68;5.07;;;;;;;31.09;64.67;100701.72;6238217;28;20503;-89
2023/06/09 12:01:23;;;;;;;5.35;4.88;;;;;;;31.17;66.70;100702.31;6242626;28;20578;-88
2023/06/09 12:04:25;;;;;;;5.35;4.85;;;;;;;31.16;58.64;100696.16;6247892;28;20052;-89
2023/06/09 12:07:27;;;;;;;7.20;5.18;;;;;;;30.83;57.71;100699.84;6253637;28;20068;-89
2023/06/09 12:10:30;;;;;;;6.55;4.93;;;;;;;30.59;56.62;100705.44;6242320;28;20044;-89
2023/06/09 12:13:44;;;;;;;5.38;4.88;;;;;;;30.35;59.15;100702.22;6251810;28;20037;-89
2023/06/09 12:16:47;;;;;;;7.20;4.72;;;;;;;30.10;65.72;100691.19;6239631;28;20091;-89
2023/06/09 12:19:51;;;;;;;8.48;5.32;;;;;;;29.90;61.40;100695.19;6240137;28;20044;-89
2023/06/09 12:22:54;;;;;;;5.82;4.97;;;;;;;29.92;63.04;100693.09;6240163;28;20538;-89
2023/06/09 12:25:56;;;;;;;5.90;4.75;;;;;;;29.89;61.50;100688.25;6242003;28;20037;-89
2023/06/09 12:29:01;;;;;;;7.38;5.15;;;;;;;29.91;68.80;100696.00;6244606;28;20036;-89
2023/06/09 12:32:04;;;;;;;7.53;5.47;;;;;;;29.89;72.43;100692.75;6240033;28;20045;-89
2023/06/09 12:35:06;;;;;;;6.43;5.10;;;;;;;29.92;74.19;100701.09;6249474;28;20561;-89
2023/06/09 12:38:18;;;;;;;5.38;4.90;;;;;;;29.91;75.03;100688.00;6257116;28;20124;-89
2023/06/09 12:41:20;;;;;;;8.05;5.32;;;;;;;29.96;87.87;100694.22;6235974;28;20565;-89
2023/06/09 12:44:25;;;;;;;6.00;5.45;;;;;;;29.96;82.80;100685.38;6247171;28;20071;-89
2023/06/09 12:47:29;;;;;;;7.32;5.28;;;;;;;29.94;79.98;100682.97;6239642;28;20033;-89
2023/06/09 12:50:32;;;;;;;7.90;5.70;;;;;;;30.27;73.00;100679.44;6246424;28;20082;-88
2023/06/09 12:53:34;;;;;;;6.05;5.45;;;;;;;30.65;67.83;100672.38;6245890;28;20037;-89
2023/06/09 12:56:35;;;;;;;7.10;5.07;;;;;;;30.71;63.87;100675.91;6238657;28;20057;-89
2023/06/09 12:59:37;;;;;;;5.85;5.07;;;;;;;30.52;69.63;100664.75;6244763;28;20470;-89
2023/06/09 13:02:39;;;;;;;6.82;5.00;;;;;;;30.66;65.84;100665.97;6221962;28;20056;-89
2023/06/09 13:05:41;;;;;;;7.18;5.32;;;;;;;30.46;60.54;100668.44;6240612;28;20038;-89
2023/06/09 13:08:44;;;;;;;5.22;4.70;;;;;;;30.00;61.54;100663.28;6240102;28;20041;-89
2023/06/09 13:11:46;;;;;;;5.43;4.60;;;;;;;29.94;66.55;100658.16;6238849;28;20071;-89
2023/06/09 13:14:48;;;;;;;7.13;5.13;;;;;;;30.29;73.60;100663.16;6242678;28;20456;-89
2023/06/09 13:17:53;;;;;;;6.45;5.03;;;;;;;30.57;72.41;100654.13;6231380;28;20056;-89
2023/06/09 13:20:55;;;;;;;5.95;4.53;;;;;;;31.23;61.70;100658.47;6231468;28;20113;-89
2023/06/09 13:23:59;;;;;;;5.50;5.00;;;;;;;31.65;61.15;100657.75;6244451;28;20554;-89
2023/06/09 13:27:03;;;;;;;5.80;5.18;;;;;;;31.75;60.61;100665.81;6245339;28;20043;-89
2023/06/09 13:30:06;;;;;;;6.50;5.30;;;;;;;31.64;57.57;100659.63;6238654;28;20423;-89
2023/06/09 13:33:10;;;;;;;5.63;5.15;;;;;;;31.17;62.42;100654.16;6225071;28;20038;-89
2023/06/09 13:36:12;;;;;;;5.38;4.90;;;;;;;30.71;64.36;100657.22;6233598;28;20080;-89
2023/06/09 13:39:15;;;;;;;6.25;5.18;;;;;;;30.23;64.56;100653.44;6245952;28;20049;-89
2023/06/09 13:42:17;;;;;;;6.45;5.18;;;;;;;30.12;68.68;100651.72;6243595;28;20126;-89
2023/06/09 13:45:22;;;;;;;6.93;5.22;;;;;;;30.27;71.67;100647.38;6236551;28;20083;-89
2023/06/09 13:48:24;;;;;;;5.38;4.90;;;;;;;30.50;67.67;100640.16;6240332;28;20052;-89
2023/06/09 13:51:26;;;;;;;5.55;5.00;;;;;;;30.50;69.34;100642.03;6242172;28;20419;-89
2023/06/09 13:54:28;;;;;;;6.72;5.47;;;;;;;30.51;68.60;100638.28;6222007;28;20496;-89
2023/06/09 13:57:30;;;;;;;6.57;5.65;;;;;;;30.66;67.74;100630.44;6217181;28;20053;-89
2023/06/09 14:00:32;;;;;;;6.40;5.65;;;;;;;30.85;68.22;100629.03;6237839;28;20615;-89
2023/06/09 14:03:34;;;;;;;5.93;5.30;;;;;;;30.57;72.15;100627.41;6253322;28;20133;-89
2023/06/09 14:06:38;;;;;;;8.65;5.80;;;;;;;30.30;77.47;100629.25;6259280;28;20135;-89